Flight Briefing for GRZ502

Departure Arrival
Juneau International Airport (PAJN)
Click to view FAA NOTAMS
Ted Stevens Anchorage International Airport (PANC)
Click to view FAA NOTAMS
Departure Time Arrival Time
N/A N/A
Aircraft Distance
B727-200F 496nm
Departure METAR Arrival METAR
PAJN 221053Z 00000KT 10SM SCT080 OVC100 04/03 A2988 RMK AO2 SLP118 T00390028 PANC 221053Z 32010KT 10SM OVC065 04/M01 A2948 RMK AO2 RAE49 SLP983 P0000 T00391006
Suggested Route
CHLKT1 ALATY JOH WITTI4


View recent IFR Routes data
Notes



Charts and Procedures

Charts for PAJN
No chart available
Charts for PANC
No chart available

Windy.com Weather Map